AST,Max TemperatureF,Mean TemperatureF,Min TemperatureF,Max Dew PointF,MeanDew PointF,Min DewpointF,Max Humidity, Mean Humidity, Min Humidity, Max Sea Level PressureIn, Mean Sea Level PressureIn, Min Sea Level PressureIn, Max VisibilityMiles, Mean VisibilityMiles, Min VisibilityMiles, Max Wind SpeedMPH, Mean Wind SpeedMPH, Max Gust SpeedMPH,PrecipitationIn, CloudCover, Events, WindDirDegrees
2012-11-1,87,82,77,73,71,68,74,62,47,29.98,29.92,29.86,17,9,6,14,10,,0.00,4,,82
2012-11-2,88,84,80,73,71,70,74,63,52,29.96,29.92,29.86,17,9,6,15,12,,0.00,3,,91
2012-11-3,87,80,73,74,73,70,89,71,49,29.96,29.93,29.89,17,9,6,9,7,,0.00,3,,103
2012-11-4,87,80,74,75,73,70,94,73,55,29.98,29.93,29.89,17,9,6,9,5,,0.00,2,Rain,130
2012-11-5,87,80,74,73,72,70,83,69,54,29.95,29.92,29.89,17,9,6,9,6,,0.00,3,,110
2012-11-6,87,80,73,75,74,72,94,75,61,29.95,29.91,29.86,17,8,6,9,7,24,0.00,3,Rain,132
2012-11-7,87,82,76,77,75,73,94,78,63,29.95,29.91,29.89,17,7,3,10,6,,0.08,5,Rain,112
2012-11-8,87,80,74,75,74,73,94,73,56,29.98,29.92,29.86,19,8,0,60,7,,0.00,4,,119
2012-11-9,87,81,75,73,73,72,94,71,53,29.93,29.88,29.83,17,9,6,8,5,,0.00,5,,132
2012-11-10,86,80,74,77,75,73,94,79,65,29.93,29.88,29.83,17,9,6,8,6,,0.00,3,,129
2012-11-11,87,80,73,77,75,72,94,79,67,29.93,29.89,29.83,17,8,4,12,6,,0.24,4,Rain,129
2012-11-12,86,82,77,77,73,71,79,70,56,29.96,29.90,29.86,16,8,6,15,9,,0.00,6,Rain,109
2012-11-13,87,82,77,77,75,73,84,76,66,29.95,29.90,29.86,16,8,6,10,7,,0.00,4,Rain,108
2012-11-14,83,79,75,77,75,73,94,87,79,29.95,29.91,29.86,16,7,4,12,4,22,0.91,6,Rain,141
2012-11-15,87,80,74,76,74,73,94,75,59,29.94,29.88,29.83,17,9,6,8,6,,0.00,4,,114
2012-11-16,86,80,74,77,75,73,94,78,64,29.93,29.89,29.86,17,8,5,10,5,,0.00,4,Rain,120
2012-11-17,86,80,74,77,75,72,94,81,64,29.98,29.94,29.89,16,8,5,8,5,,0.35,5,Rain,142
2012-11-18,87,82,76,77,75,73,89,75,63,29.98,29.95,29.92,17,8,0,7,5,,0.00,4,Rain,140
2012-11-19,86,80,73,75,72,70,94,75,55,29.98,29.92,29.86,17,8,3,15,8,,0.03,3,Rain,132
2012-11-20,86,78,71,72,68,64,83,63,44,29.92,29.87,29.83,17,9,6,9,5,,0.00,2,,147
2012-11-21,86,78,69,72,70,66,89,70,52,29.92,29.88,29.83,17,9,6,9,7,,0.00,2,,161
2012-11-22,88,79,70,77,74,66,94,78,63,29.95,29.91,29.86,17,8,6,9,7,,0.16,2,Rain,165
2012-11-23,87,82,75,75,74,72,94,76,58,29.98,29.92,29.86,17,9,6,7,5,,0.00,2,,164
2012-11-24,87,80,73,75,74,72,94,76,60,29.98,29.93,29.89,19,9,6,9,6,,0.00,3,,145
2012-11-25,86,80,75,77,75,75,84,75,68,30.01,29.98,29.95,17,8,6,14,10,,0.00,5,Rain,97
2012-11-26,86,80,75,78,75,73,84,76,70,30.04,29.99,29.95,17,8,5,14,12,,0.04,5,Rain,97
2012-11-27,87,82,77,75,73,70,79,69,57,30.04,29.99,29.95,17,9,6,15,12,24,0.00,3,,97
2012-11-28,88,81,74,75,74,72,79,72,60,29.99,29.94,29.89,17,8,6,15,12,,0.00,4,Rain,95
2012-11-29,87,82,75,75,73,72,94,73,54,30.47,29.96,29.89,17,9,6,132,16,29,0.00,4,Rain,99
2012-11-30,84,78,72,75,72,71,94,79,68,29.98,29.92,29.89,17,8,3,12,6,,0.55,5,Rain,157